Time;durP1;ratioP1;P1;durP2;ratioP2;P2;SDS_P1;SDS_P2;PMS_P1;PMS_P2;Temp;Humidity;BMP_temperature;BMP_pressure;BME280_temperature;BME280_humidity;BME280_pressure;Samples;Min_cycle;Max_cycle;Signal;HPM_P1;HPM_P2
2023/06/25 00:00:45;;;;;;;6.50;5.90;;;15.80;99.50;;;;;;4980807;28;20536;-58
2023/06/25 00:03:13;;;;;;;10.67;6.27;;;15.80;97.90;;;;;;4978538;28;21007;-57
2023/06/25 00:05:40;;;;;;;7.23;6.13;;;15.90;93.20;;;;;;4987124;28;20496;-58
2023/06/25 00:08:07;;;;;;;13.43;6.20;;;15.90;91.40;;;;;;4995341;28;20540;-58
2023/06/25 00:10:33;;;;;;;10.03;6.53;;;15.90;89.60;;;;;;4994282;28;20527;-57
2023/06/25 00:13:00;;;;;;;7.77;7.10;;;15.90;94.30;;;;;;4990730;28;20469;-57
2023/06/25 00:15:27;;;;;;;6.37;5.70;;;15.90;94.90;;;;;;4994133;28;20552;-58
2023/06/25 00:17:53;;;;;;;10.03;6.30;;;15.90;95.00;;;;;;4989972;28;20472;-60
2023/06/25 00:20:23;;;;;;;8.57;5.70;;;15.90;98.10;;;;;;4985463;28;20493;-57
2023/06/25 00:22:50;;;;;;;23.17;7.20;;;16.00;99.50;;;;;;4989317;28;20894;-57
2023/06/25 00:25:17;;;;;;;7.17;6.50;;;16.00;98.70;;;;;;4987660;28;20470;-58
2023/06/25 00:27:47;;;;;;;7.20;6.50;;;16.00;99.10;;;;;;4982931;28;20515;-57
2023/06/25 00:30:14;;;;;;;6.97;6.37;;;16.00;98.60;;;;;;4991505;28;20515;-57
2023/06/25 00:32:41;;;;;;;6.90;6.27;;;16.10;99.80;;;;;;4985061;28;20473;-57
2023/06/25 00:35:09;;;;;;;7.00;6.23;;;16.10;99.90;;;;;;4979634;28;20613;-57
2023/06/25 00:37:37;;;;;;;13.90;5.77;;;16.10;99.90;;;;;;4977607;28;20544;-57
2023/06/25 00:40:09;;;;;;;9.23;6.90;;;16.20;99.90;;;;;;4993250;28;20468;-58
2023/06/25 00:42:41;;;;;;;6.97;5.90;;;16.20;98.40;;;;;;4974886;28;21044;-58
2023/06/25 00:45:09;;;;;;;9.37;5.80;;;16.20;98.60;;;;;;4972213;28;20564;-57
2023/06/25 00:47:36;;;;;;;9.27;6.60;;;16.20;99.90;;;;;;4973708;28;20456;-57
2023/06/25 00:50:04;;;;;;;7.50;6.70;;;16.20;99.90;;;;;;4973602;28;20450;-57
2023/06/25 00:52:30;;;;;;;6.93;6.23;;;16.20;99.90;;;;;;4989929;28;21513;-57
2023/06/25 00:54:58;;;;;;;9.43;6.80;;;16.30;99.90;;;;;;4990949;28;20499;-57
2023/06/25 00:57:27;;;;;;;8.00;6.40;;;16.30;99.90;;;;;;4992340;28;20476;-56
2023/06/25 00:59:55;;;;;;;9.17;6.17;;;16.30;99.90;;;;;;4973603;28;20462;-57
2023/06/25 01:02:26;;;;;;;11.77;7.40;;;16.30;97.00;;;;;;4980901;28;20469;-58
2023/06/25 01:05:03;;;;;;;7.70;6.87;;;16.30;95.00;;;;;;4985443;28;20531;-56
2023/06/25 01:07:32;;;;;;;7.40;6.70;;;16.30;97.90;;;;;;4977606;28;20461;-57
2023/06/25 01:10:00;;;;;;;6.87;6.27;;;16.40;97.50;;;;;;4978099;28;21037;-58
2023/06/25 01:12:27;;;;;;;11.30;6.53;;;16.30;92.00;;;;;;4987583;28;20611;-58
2023/06/25 01:14:54;;;;;;;7.80;6.77;;;16.40;94.70;;;;;;4995293;28;20532;-56
2023/06/25 01:17:21;;;;;;;7.87;7.27;;;16.40;97.10;;;;;;4992495;28;20460;-57
2023/06/25 01:19:48;;;;;;;9.23;7.30;;;16.30;97.60;;;;;;4982097;28;20466;-57
2023/06/25 01:22:16;;;;;;;11.20;6.70;;;16.30;97.10;;;;;;4987655;28;20488;-57
2023/06/25 01:24:44;;;;;;;8.27;6.40;;;16.40;98.80;;;;;;4999293;28;20456;-57
2023/06/25 01:27:12;;;;;;;8.70;6.97;;;16.40;98.10;;;;;;4988024;28;20441;-58
2023/06/25 01:29:39;;;;;;;8.30;6.57;;;16.40;97.50;;;;;;4987774;28;20461;-58
2023/06/25 01:32:07;;;;;;;7.27;6.67;;;16.40;97.50;;;;;;4995544;28;20484;-57
2023/06/25 01:34:33;;;;;;;9.83;7.30;;;16.40;95.50;;;;;;4993638;28;20843;-58
2023/06/25 01:37:00;;;;;;;11.30;6.70;;;16.40;96.10;;;;;;4978745;28;20484;-57
2023/06/25 01:39:26;;;;;;;10.17;7.43;;;16.40;96.80;;;;;;4993190;28;20527;-58
2023/06/25 01:41:54;;;;;;;12.97;6.90;;;16.40;93.80;;;;;;4995106;28;21001;-57
2023/06/25 01:44:27;;;;;;;8.63;6.07;;;16.40;93.60;;;;;;4995333;28;20836;-58
2023/06/25 01:46:54;;;;;;;9.03;6.70;;;16.50;92.50;;;;;;4991515;28;20481;-57
2023/06/25 01:49:21;;;;;;;10.47;7.20;;;16.50;91.40;;;;;;4993642;28;20528;-57
2023/06/25 01:51:47;;;;;;;7.17;6.57;;;16.50;89.90;;;;;;4991618;28;20489;-58
2023/06/25 01:54:14;;;;;;;7.97;7.07;;;16.50;92.50;;;;;;4991718;28;20453;-58
2023/06/25 01:56:42;;;;;;;10.13;7.50;;;16.50;94.00;;;;;;4996672;28;20469;-58
2023/06/25 01:59:10;;;;;;;9.43;7.43;;;16.60;96.50;;;;;;4996329;28;20507;-57
2023/06/25 02:01:37;;;;;;;11.93;7.40;;;16.60;99.50;;;;;;4994355;28;20488;-57
2023/06/25 02:04:04;;;;;;;7.67;6.97;;;16.50;99.20;;;;;;4983498;28;20458;-57
2023/06/25 02:06:30;;;;;;;7.97;7.30;;;16.50;99.70;;;;;;4992090;28;20568;-57
2023/06/25 02:08:57;;;;;;;7.27;6.57;;;16.50;96.60;;;;;;4986195;28;20461;-58
2023/06/25 02:11:23;;;;;;;7.53;6.90;;;16.50;94.50;;;;;;4989634;28;20564;-58
2023/06/25 02:13:50;;;;;;;7.30;6.70;;;16.50;95.90;;;;;;4996687;28;20528;-58
2023/06/25 02:16:18;;;;;;;13.73;6.53;;;16.50;98.60;;;;;;5004126;22;20536;-54
2023/06/25 02:18:45;;;;;;;9.03;6.73;;;16.50;99.90;;;;;;4974458;28;20939;-54
2023/06/25 02:21:11;;;;;;;8.63;6.60;;;16.50;99.30;;;;;;4972518;28;20553;-54
2023/06/25 02:23:38;;;;;;;7.20;6.47;;;16.50;96.60;;;;;;4974286;28;20561;-54
2023/06/25 02:26:04;;;;;;;10.23;6.77;;;16.50;98.10;;;;;;4974993;28;20502;-54
2023/06/25 02:28:31;;;;;;;12.60;6.60;;;16.50;96.60;;;;;;4964397;28;20553;-54
2023/06/25 02:30:57;;;;;;;10.60;6.57;;;16.50;97.80;;;;;;4966309;28;20582;-53
2023/06/25 02:33:25;;;;;;;13.30;6.73;;;16.50;97.10;;;;;;4957501;28;20923;-53
2023/06/25 02:35:52;;;;;;;8.33;7.53;;;16.50;94.50;;;;;;4964550;28;20561;-54
2023/06/25 02:38:18;;;;;;;8.50;7.27;;;16.50;94.60;;;;;;4936338;29;20992;-53
2023/06/25 02:40:45;;;;;;;8.87;7.97;;;16.50;98.40;;;;;;4958500;28;20536;-54
2023/06/25 02:43:11;;;;;;;11.03;8.37;;;16.50;99.90;;;;;;4959845;28;20549;-54
2023/06/25 02:45:38;;;;;;;8.10;7.13;;;16.50;99.90;;;;;;4962632;28;21006;-54
2023/06/25 02:48:05;;;;;;;8.87;7.97;;;16.50;99.90;;;;;;4954362;28;20537;-53
2023/06/25 02:50:33;;;;;;;8.30;7.50;;;16.50;99.90;;;;;;4962672;28;20914;-54
2023/06/25 02:52:59;;;;;;;11.13;7.50;;;16.50;99.90;;;;;;4959105;28;20509;-54
2023/06/25 02:55:26;;;;;;;8.00;7.30;;;16.50;99.90;;;;;;4967483;28;21031;-54
2023/06/25 02:57:52;;;;;;;11.57;7.43;;;16.60;99.90;;;;;;4966607;28;21010;-54
2023/06/25 03:00:19;;;;;;;11.23;7.27;;;16.60;99.90;;;;;;4968783;28;20558;-54
2023/06/25 03:02:46;;;;;;;10.03;7.27;;;16.60;99.90;;;;;;4954525;28;20511;-54
2023/06/25 03:05:12;;;;;;;8.30;6.63;;;16.60;99.90;;;;;;4960866;28;20564;-54
2023/06/25 03:07:49;;;;;;;7.43;6.70;;;16.60;99.90;;;;;;4956350;28;20623;-53
2023/06/25 03:10:15;;;;;;;14.63;7.50;;;16.60;99.90;;;;;;4961134;28;20550;-54
2023/06/25 03:12:42;;;;;;;7.47;6.37;;;16.60;99.90;;;;;;4963605;28;20593;-55
2023/06/25 03:15:09;;;;;;;11.30;8.00;;;16.60;99.90;;;;;;4953576;28;20545;-56
2023/06/25 03:17:36;;;;;;;10.23;8.27;;;16.60;99.90;;;;;;4953838;28;20474;-54
2023/06/25 03:20:03;;;;;;;8.60;6.83;;;16.70;99.90;;;;;;4964746;28;20586;-54
2023/06/25 03:22:30;;;;;;;7.63;6.93;;;16.60;99.90;;;;;;4967054;28;20469;-54
2023/06/25 03:24:58;;;;;;;7.67;6.97;;;16.70;99.90;;;;;;4965543;28;20915;-54
2023/06/25 03:27:24;;;;;;;13.50;7.83;;;16.70;99.20;;;;;;4973937;28;20550;-53
2023/06/25 03:29:51;;;;;;;8.17;7.37;;;16.70;97.00;;;;;;4959972;28;20560;-53
2023/06/25 03:32:17;;;;;;;9.37;6.70;;;16.70;99.20;;;;;;4953953;28;20573;-53
2023/06/25 03:34:44;;;;;;;9.97;7.70;;;16.70;99.90;;;;;;4953131;28;20541;-54
2023/06/25 03:37:10;;;;;;;9.60;7.27;;;16.70;99.90;;;;;;4960751;28;20541;-53
2023/06/25 03:39:37;;;;;;;14.70;7.90;;;16.70;99.90;;;;;;4955768;28;20537;-53
2023/06/25 03:42:05;;;;;;;8.17;7.47;;;16.80;99.10;;;;;;4952043;29;20984;-54
2023/06/25 03:44:32;;;;;;;8.87;7.97;;;16.80;99.50;;;;;;4952506;28;20572;-53
2023/06/25 03:47:00;;;;;;;11.80;7.03;;;16.80;99.90;;;;;;4957923;28;20485;-54
2023/06/25 03:49:27;;;;;;;7.53;6.80;;;16.80;99.90;;;;;;4958212;28;20466;-54
2023/06/25 03:51:53;;;;;;;10.30;7.57;;;16.80;99.90;;;;;;4962493;28;20565;-55
2023/06/25 03:54:20;;;;;;;10.07;7.60;;;16.90;99.90;;;;;;4969996;28;20560;-53
2023/06/25 03:56:46;;;;;;;10.70;7.30;;;16.80;99.90;;;;;;4963026;28;20587;-54
2023/06/25 03:59:14;;;;;;;7.20;6.60;;;16.90;98.10;;;;;;4955985;28;20647;-53
2023/06/25 04:01:40;;;;;;;12.07;8.40;;;16.90;95.40;;;;;;4964547;28;20538;-54
2023/06/25 04:04:07;;;;;;;9.20;7.10;;;16.90;96.70;;;;;;4966843;28;20549;-54
2023/06/25 04:06:33;;;;;;;10.40;7.50;;;16.90;97.30;;;;;;4962920;28;20581;-54
2023/06/25 04:09:00;;;;;;;7.90;6.90;;;16.90;95.50;;;;;;4961373;28;20549;-53
2023/06/25 04:11:26;;;;;;;8.43;7.67;;;17.00;94.00;;;;;;4961865;28;20569;-55
2023/06/25 04:13:53;;;;;;;10.50;7.43;;;17.00;95.90;;;;;;4963346;28;20609;-54
2023/06/25 04:16:21;;;;;;;7.83;7.13;;;17.00;97.00;;;;;;4972800;28;20573;-56
2023/06/25 04:18:47;;;;;;;9.60;8.23;;;17.10;96.80;;;;;;4963015;28;20490;-54
2023/06/25 04:21:14;;;;;;;8.07;7.27;;;17.10;96.20;;;;;;4968938;28;21039;-55
2023/06/25 04:23:40;;;;;;;8.80;7.40;;;17.10;93.70;;;;;;4973184;28;20537;-55
2023/06/25 04:26:07;;;;;;;10.50;7.57;;;17.10;94.90;;;;;;4964422;28;20632;-54
2023/06/25 04:28:33;;;;;;;13.23;7.97;;;17.10;93.50;;;;;;4953060;28;21023;-55
2023/06/25 04:31:00;;;;;;;14.90;7.23;;;17.20;92.80;;;;;;4957125;28;20540;-54
2023/06/25 04:33:27;;;;;;;8.90;8.00;;;17.20;91.50;;;;;;4963095;28;20519;-54
2023/06/25 04:35:54;;;;;;;8.13;7.33;;;17.30;89.90;;;;;;4962048;28;21377;-54
2023/06/25 04:38:21;;;;;;;7.87;7.17;;;17.30;91.00;;;;;;4967699;28;20548;-56
2023/06/25 04:40:47;;;;;;;10.53;7.97;;;17.30;90.20;;;;;;4950191;28;20501;-56
2023/06/25 04:43:14;;;;;;;8.50;7.70;;;17.40;90.60;;;;;;4960852;28;21037;-55
2023/06/25 04:45:41;;;;;;;15.13;7.93;;;17.50;91.10;;;;;;4977663;28;20831;-55
2023/06/25 04:48:08;;;;;;;18.13;8.00;;;17.50;91.30;;;;;;4983922;28;20466;-55
2023/06/25 04:50:36;;;;;;;7.93;7.20;;;17.50;91.30;;;;;;4986578;28;20489;-55
2023/06/25 04:53:02;;;;;;;8.83;7.93;;;17.50;90.50;;;;;;4970405;28;20941;-55
2023/06/25 04:55:29;;;;;;;12.43;8.10;;;17.60;90.10;;;;;;4964693;28;20486;-56
2023/06/25 04:57:56;;;;;;;11.43;8.17;;;17.60;89.80;;;;;;4964546;28;20491;-56
2023/06/25 05:00:22;;;;;;;7.60;6.90;;;17.70;89.30;;;;;;4965495;28;20532;-55
2023/06/25 05:02:49;;;;;;;9.07;7.53;;;17.70;89.00;;;;;;4964471;28;20562;-54
2023/06/25 05:05:15;;;;;;;11.87;7.77;;;17.70;89.00;;;;;;4972328;28;20524;-55
2023/06/25 05:07:43;;;;;;;11.10;8.03;;;17.80;89.30;;;;;;4964982;28;20549;-54
2023/06/25 05:10:10;;;;;;;8.97;8.10;;;17.80;88.60;;;;;;4956998;28;20895;-56
2023/06/25 05:12:37;;;;;;;8.90;8.00;;;17.90;90.30;;;;;;4957022;29;20568;-55
2023/06/25 05:15:04;;;;;;;8.57;7.70;;;18.00;92.50;;;;;;4955233;29;20520;-55
2023/06/25 05:17:31;;;;;;;9.53;8.50;;;18.00;94.10;;;;;;4964184;28;20572;-55
2023/06/25 05:19:57;;;;;;;9.37;7.23;;;18.00;95.40;;;;;;4964907;28;20534;-55
2023/06/25 05:22:24;;;;;;;14.30;8.30;;;18.10;96.30;;;;;;4964028;28;20557;-55
2023/06/25 05:24:52;;;;;;;8.43;7.73;;;18.10;96.30;;;;;;4955863;28;20501;-55
2023/06/25 05:27:18;;;;;;;9.87;8.10;;;18.20;96.10;;;;;;4972328;28;20544;-55
2023/06/25 05:29:45;;;;;;;15.17;8.80;;;18.30;96.20;;;;;;4970030;28;20564;-54
2023/06/25 05:32:11;;;;;;;13.60;8.57;;;18.40;96.60;;;;;;4957858;28;20589;-55
2023/06/25 05:34:38;;;;;;;16.77;8.63;;;18.40;97.80;;;;;;4966698;28;20537;-55
2023/06/25 05:37:05;;;;;;;12.40;8.70;;;18.50;99.90;;;;;;4962875;28;20561;-54
2023/06/25 05:39:32;;;;;;;10.27;8.27;;;18.50;99.90;;;;;;4965226;28;20906;-56
2023/06/25 05:42:00;;;;;;;10.80;8.80;;;18.60;99.90;;;;;;4973218;28;20540;-55
2023/06/25 05:44:27;;;;;;;12.43;9.70;;;18.60;99.90;;;;;;4967384;28;21041;-54
2023/06/25 05:46:53;;;;;;;11.53;10.03;;;18.60;99.90;;;;;;4963749;28;20973;-55
2023/06/25 05:49:20;;;;;;;12.00;10.80;;;18.70;99.90;;;;;;4957672;28;20907;-55
2023/06/25 05:51:46;;;;;;;10.70;9.33;;;18.80;99.90;;;;;;4955879;28;20545;-55
2023/06/25 05:54:13;;;;;;;11.93;10.03;;;18.90;99.90;;;;;;4965163;28;20480;-54
2023/06/25 05:56:39;;;;;;;12.33;9.30;;;18.90;99.90;;;;;;4955971;28;20478;-55
2023/06/25 05:59:07;;;;;;;14.43;9.27;;;19.00;99.90;;;;;;4963897;28;20493;-55
2023/06/25 06:01:34;;;;;;;11.93;9.67;;;19.10;99.90;;;;;;4971882;28;20508;-55
2023/06/25 06:04:00;;;;;;;10.43;8.70;;;19.10;99.90;;;;;;4963162;28;20995;-55
2023/06/25 06:06:27;;;;;;;10.30;9.23;;;19.20;99.90;;;;;;4955842;28;20581;-55
2023/06/25 06:08:53;;;;;;;11.13;9.97;;;19.30;99.90;;;;;;4963946;28;20453;-55
2023/06/25 06:11:20;;;;;;;12.67;9.37;;;19.30;99.90;;;;;;4955524;29;20509;-56
2023/06/25 06:13:46;;;;;;;12.07;10.10;;;19.40;99.90;;;;;;4962964;28;20577;-55
2023/06/25 06:16:14;;;;;;;11.20;10.03;;;19.40;99.90;;;;;;4970631;28;21158;-55
2023/06/25 06:18:42;;;;;;;10.50;9.50;;;19.60;99.90;;;;;;4963933;28;20557;-54
2023/06/25 06:21:08;;;;;;;15.70;9.93;;;19.60;99.90;;;;;;4955923;29;20883;-54
2023/06/25 06:23:35;;;;;;;9.83;8.67;;;19.60;99.90;;;;;;4961410;28;20560;-53
2023/06/25 06:26:01;;;;;;;10.63;9.03;;;19.70;99.90;;;;;;4966037;28;20923;-54
2023/06/25 06:28:28;;;;;;;10.90;9.20;;;19.70;99.90;;;;;;4966495;28;20541;-53
2023/06/25 06:30:54;;;;;;;10.03;9.00;;;19.80;23.50;;;;;;4970476;28;20919;-55
2023/06/25 06:33:22;;;;;;;12.40;8.83;;;19.80;39.10;;;;;;4956154;28;20482;-54
2023/06/25 06:35:48;;;;;;;9.33;8.33;;;19.90;40.90;;;;;;4955260;28;20553;-51
2023/06/25 06:38:15;;;;;;;10.50;8.90;;;20.00;37.30;;;;;;4955523;28;20484;-50
2023/06/25 06:40:41;;;;;;;10.10;8.67;;;20.10;72.00;;;;;;4956256;28;20471;-50
2023/06/25 06:43:08;;;;;;;10.03;8.97;;;20.20;60.60;;;;;;4960198;28;20534;-50
2023/06/25 06:45:35;;;;;;;13.27;9.40;;;20.20;64.20;;;;;;4954623;28;21000;-51
2023/06/25 06:48:01;;;;;;;10.10;8.03;;;20.40;59.00;;;;;;4963266;28;20533;-50
2023/06/25 06:50:29;;;;;;;9.03;8.17;;;20.40;62.50;;;;;;4972059;28;20485;-50
2023/06/25 06:52:55;;;;;;;10.27;8.10;;;20.40;57.80;;;;;;4974467;28;20569;-50
2023/06/25 06:55:22;;;;;;;9.63;7.83;;;20.50;84.50;;;;;;4974056;28;20529;-50
2023/06/25 06:57:48;;;;;;;10.90;8.60;;;20.60;68.50;;;;;;4953446;28;20929;-50
2023/06/25 07:00:18;;;;;;;11.73;9.23;;;20.70;79.20;;;;;;4954539;28;20549;-50
2023/06/25 07:02:44;;;;;;;11.47;8.90;;;20.70;71.70;;;;;;4954694;28;20458;-50
2023/06/25 07:05:12;;;;;;;9.37;8.47;;;20.80;64.80;;;;;;4954598;28;20479;-55
2023/06/25 07:07:40;;;;;;;11.27;8.50;;;20.80;66.10;;;;;;4954498;29;20537;-54
2023/06/25 07:10:07;;;;;;;13.90;8.87;;;20.90;83.00;;;;;;4955045;28;20898;-54
2023/06/25 07:12:33;;;;;;;16.97;8.50;;;20.90;96.50;;;;;;4953543;28;20577;-55
2023/06/25 07:15:00;;;;;;;7.87;7.07;;;21.00;99.90;;;;;;4953873;28;20475;-55
2023/06/25 07:17:26;;;;;;;8.73;7.23;;;21.00;99.60;;;;;;4961632;28;20529;-51
2023/06/25 07:19:53;;;;;;;9.23;7.60;;;21.00;99.90;;;;;;4973537;28;21074;-50
2023/06/25 07:22:19;;;;;;;11.07;8.43;;;21.10;99.90;;;;;;4973757;28;20496;-50
2023/06/25 07:24:47;;;;;;;9.10;8.20;;;21.10;99.90;;;;;;4973971;28;20532;-51
2023/06/25 07:27:14;;;;;;;9.53;7.57;;;21.20;99.90;;;;;;4973963;28;20831;-50
2023/06/25 07:29:59;;;;;;;11.40;8.30;;;21.30;99.90;;;;;;4962297;28;20565;-50
2023/06/25 07:32:53;;;;;;;18.43;8.27;;;21.30;99.90;;;;;;4953632;28;20537;-50
2023/06/25 07:35:28;;;;;;;8.57;7.73;;;21.40;99.90;;;;;;4952768;28;20475;-51
2023/06/25 07:37:58;;;;;;;12.00;7.50;;;21.40;99.90;;;;;;4962678;28;20448;-50
2023/06/25 07:40:30;;;;;;;10.80;8.33;;;21.40;99.90;;;;;;4973550;28;20501;-50
2023/06/25 07:43:12;;;;;;;11.33;8.53;;;21.50;99.90;;;;;;4958288;28;20996;-50
2023/06/25 07:45:50;;;;;;;8.87;7.20;;;21.50;99.90;;;;;;4961656;28;20987;-51
2023/06/25 07:51:24;;;;;;;10.07;7.33;;;21.60;99.90;;;;;;4951139;28;20435;-51
2023/06/25 07:54:23;;;;;;;8.30;7.50;;;21.60;99.90;;;;;;4954060;28;20548;-51
2023/06/25 07:56:58;;;;;;;19.13;8.23;;;21.70;99.90;;;;;;4960200;28;21059;-50
2023/06/25 07:59:24;;;;;;;11.83;9.17;;;21.70;99.90;;;;;;4952476;29;20556;-50
2023/06/25 08:01:51;;;;;;;11.13;7.77;;;21.80;99.90;;;;;;4966053;28;20537;-50
2023/06/25 08:04:19;;;;;;;11.00;7.53;;;21.80;99.90;;;;;;4973325;28;20481;-51
2023/06/25 08:06:45;;;;;;;11.80;7.47;;;21.90;99.90;;;;;;4967163;28;20477;-50
2023/06/25 08:09:12;;;;;;;11.00;8.83;;;21.90;99.90;;;;;;4953132;28;20581;-50
2023/06/25 08:11:38;;;;;;;8.00;7.20;;;22.00;99.90;;;;;;4951709;28;21055;-51
2023/06/25 08:14:08;;;;;;;11.13;7.37;;;22.10;99.90;;;;;;4952996;28;20478;-51
2023/06/25 08:16:35;;;;;;;18.23;9.40;;;22.20;99.90;;;;;;4994075;22;20503;-52
2023/06/25 08:19:01;;;;;;;9.63;7.90;;;22.30;99.90;;;;;;5005136;28;20518;-54
2023/06/25 08:21:28;;;;;;;14.47;8.70;;;22.40;99.90;;;;;;5011578;28;20550;-52
2023/06/25 08:23:54;;;;;;;8.47;7.67;;;22.50;99.90;;;;;;5012541;28;20443;-52
2023/06/25 08:26:21;;;;;;;8.63;7.50;;;22.50;99.90;;;;;;5013088;28;20500;-52
2023/06/25 08:28:47;;;;;;;14.90;8.50;;;22.60;99.90;;;;;;5003169;28;20550;-52
2023/06/25 08:31:15;;;;;;;13.23;8.63;;;22.60;99.90;;;;;;4989477;28;20468;-52
2023/06/25 08:33:42;;;;;;;10.40;8.23;;;22.70;99.90;;;;;;4995245;28;20484;-52
2023/06/25 08:36:09;;;;;;;10.30;8.93;;;22.80;99.90;;;;;;4994937;28;21059;-52
2023/06/25 08:38:37;;;;;;;10.63;7.47;;;22.80;99.90;;;;;;4992455;28;20452;-51
2023/06/25 08:41:04;;;;;;;10.23;7.93;;;22.90;99.90;;;;;;4994100;28;20503;-51
2023/06/25 08:43:30;;;;;;;10.40;7.40;;;23.00;43.00;;;;;;4995399;28;20547;-52
2023/06/25 08:45:57;;;;;;;9.83;7.20;;;23.10;40.50;;;;;;4997009;28;20476;-52
2023/06/25 08:48:28;;;;;;;10.70;7.90;;;23.10;79.90;;;;;;4997167;28;20540;-52
2023/06/25 08:50:56;;;;;;;11.47;8.20;;;23.20;68.70;;;;;;4997226;28;20539;-52
2023/06/25 08:53:25;;;;;;;8.17;7.27;;;23.30;75.30;;;;;;4995263;28;20499;-53
2023/06/25 08:55:54;;;;;;;9.67;7.33;;;23.40;42.40;;;;;;4982785;28;20825;-52
2023/06/25 08:58:21;;;;;;;8.37;7.40;;;23.40;75.70;;;;;;4992310;28;21026;-52
2023/06/25 09:00:47;;;;;;;8.67;7.03;;;23.30;77.50;;;;;;4996844;28;20523;-52
2023/06/25 09:03:14;;;;;;;11.27;6.83;;;23.50;81.30;;;;;;4996460;28;20528;-52
2023/06/25 09:05:51;;;;;;;10.73;7.27;;;23.60;70.70;;;;;;5003995;28;20531;-53
2023/06/25 09:08:18;;;;;;;7.80;7.20;;;23.80;75.50;;;;;;4998828;28;20515;-53
2023/06/25 09:10:49;;;;;;;8.50;6.60;;;23.80;91.90;;;;;;4995859;28;21026;-53
2023/06/25 09:13:22;;;;;;;10.00;8.00;;;23.90;91.00;;;;;;4982006;28;20571;-52
2023/06/25 09:15:48;;;;;;;7.63;6.77;;;24.10;98.30;;;;;;4984369;28;20506;-52
2023/06/25 09:18:15;;;;;;;10.50;6.47;;;24.10;99.90;;;;;;4991398;28;20949;-52
2023/06/25 09:20:48;;;;;;;8.70;7.67;;;24.20;99.90;;;;;;4989051;28;20557;-51
2023/06/25 09:23:19;;;;;;;9.90;6.80;;;24.00;99.90;;;;;;4985697;28;20464;-52
2023/06/25 09:25:46;;;;;;;8.07;7.27;;;24.30;99.90;;;;;;4995537;28;20564;-53
2023/06/25 09:28:13;;;;;;;8.87;7.70;;;24.30;99.90;;;;;;4987497;28;20471;-52
2023/06/25 09:30:40;;;;;;;8.20;7.40;;;24.40;99.90;;;;;;4986235;28;20540;-52
2023/06/25 09:33:08;;;;;;;7.20;6.50;;;24.70;97.50;;;;;;4978519;28;22523;-53
2023/06/25 09:35:35;;;;;;;7.57;6.87;;;24.70;99.90;;;;;;4972930;28;20505;-52
2023/06/25 09:38:03;;;;;;;9.60;7.20;;;25.00;99.90;;;;;;4995587;28;20532;-52
2023/06/25 09:40:29;;;;;;;8.20;6.27;;;25.20;99.90;;;;;;4992375;28;20500;-52
2023/06/25 09:42:58;;;;;;;6.30;5.73;;;25.40;99.90;;;;;;4988752;28;20556;-52
2023/06/25 09:45:26;;;;;;;6.60;5.30;;;25.60;99.90;;;;;;4991025;28;20563;-51
2023/06/25 09:47:54;;;;;;;5.70;5.27;;;25.90;99.90;;;;;;4986602;28;20579;-52
2023/06/25 09:50:24;;;;;;;6.90;6.20;;;26.30;99.90;;;;;;4991658;28;20445;-51
2023/06/25 09:52:55;;;;;;;8.87;6.07;;;26.40;1.40;;;;;;4977101;28;20548;-52
2023/06/25 09:55:23;;;;;;;6.20;5.60;;;26.50;99.90;;;;;;4976992;28;20521;-52
2023/06/25 09:57:50;;;;;;;6.40;5.80;;;26.90;99.90;;;;;;4979623;28;20576;-52
2023/06/25 10:00:20;;;;;;;5.13;4.73;;;26.90;99.90;;;;;;4979051;28;20560;-51
2023/06/25 10:02:47;;;;;;;6.30;5.70;;;26.90;99.90;;;;;;4983174;28;20465;-52
2023/06/25 10:05:13;;;;;;;5.47;5.07;;;26.60;99.90;;;;;;4991336;28;20543;-52
2023/06/25 10:07:41;;;;;;;6.00;5.47;;;26.20;99.90;;;;;;4992977;28;20561;-51
2023/06/25 10:10:18;;;;;;;6.07;5.53;;;26.30;99.90;;;;;;4984227;28;20560;-53
2023/06/25 10:12:48;;;;;;;5.60;5.10;;;26.50;99.90;;;;;;4994626;28;20985;-52
2023/06/25 10:15:15;;;;;;;6.60;5.20;;;26.60;99.90;;;;;;4994462;28;20931;-52
2023/06/25 10:17:47;;;;;;;7.10;5.10;;;26.20;99.90;;;;;;4975107;28;20909;-52
2023/06/25 10:20:14;;;;;;;6.27;5.57;;;25.90;99.90;;;;;;4984996;28;21274;-52
2023/06/25 10:22:43;;;;;;;6.27;5.23;;;26.00;99.90;;;;;;4994670;28;20532;-53
2023/06/25 10:25:10;;;;;;;6.23;5.60;;;26.40;99.90;;;;;;4993177;28;20455;-52
2023/06/25 10:27:36;;;;;;;6.00;4.73;;;27.00;99.90;;;;;;4988069;28;20520;-53
2023/06/25 10:30:14;;;;;;;8.43;5.70;;;27.50;99.90;;;;;;4987655;28;20560;-52
2023/06/25 10:32:42;;;;;;;7.53;4.77;;;27.70;99.90;;;;;;4983928;28;20974;-52
2023/06/25 10:35:09;;;;;;;6.87;5.30;;;27.90;99.90;;;;;;4974752;28;20495;-52
2023/06/25 10:37:36;;;;;;;9.90;5.10;;;27.80;99.90;;;;;;4974945;28;21006;-52
2023/06/25 10:40:05;;;;;;;6.63;4.50;;;27.70;99.90;;;;;;4974855;28;20545;-52
2023/06/25 10:42:32;;;;;;;6.10;5.50;;;27.70;99.90;;;;;;4989950;28;20571;-51
2023/06/25 10:45:00;;;;;;;5.17;4.67;;;27.30;99.90;;;;;;4992413;28;20561;-51
2023/06/25 10:47:28;;;;;;;7.13;5.23;;;27.10;99.90;;;;;;4994505;28;20556;-51
2023/06/25 10:49:55;;;;;;;9.43;4.90;;;27.50;99.90;;;;;;4994348;28;20882;-52
2023/06/25 10:52:22;;;;;;;7.03;5.33;;;28.00;99.90;;;;;;4983392;28;20485;-51
2023/06/25 10:54:48;;;;;;;8.87;5.70;;;28.20;99.90;;;;;;4973472;28;20925;-53
2023/06/25 10:57:16;;;;;;;6.60;4.93;;;28.30;99.90;;;;;;4989745;28;20492;-52
2023/06/25 10:59:44;;;;;;;6.20;4.47;;;28.20;99.90;;;;;;4994210;28;20472;-51
2023/06/25 11:02:13;;;;;;;6.13;5.00;;;28.10;99.90;;;;;;4992247;28;20474;-52
2023/06/25 11:04:41;;;;;;;6.60;5.33;;;27.80;99.90;;;;;;4989844;28;20476;-53
2023/06/25 11:07:09;;;;;;;8.17;5.30;;;27.80;99.90;;;;;;4984975;28;20916;-52
2023/06/25 11:09:36;;;;;;;7.60;5.00;;;28.10;99.90;;;;;;4974317;28;20806;-52
2023/06/25 11:12:05;;;;;;;5.93;5.30;;;28.00;99.90;;;;;;4987937;28;20858;-51
2023/06/25 11:14:32;;;;;;;6.73;4.53;;;27.70;99.90;;;;;;4993532;28;20591;-53
2023/06/25 11:16:58;;;;;;;8.80;5.60;;;27.70;99.90;;;;;;4993531;28;20487;-52
2023/06/25 11:19:26;;;;;;;6.17;5.10;;;27.20;99.90;;;;;;4991220;28;20492;-53
2023/06/25 11:21:54;;;;;;;10.10;5.37;;;26.80;99.90;;;;;;4985369;28;20493;-53
2023/06/25 11:24:21;;;;;;;11.53;4.77;;;26.40;99.90;;;;;;4982732;28;20465;-52
2023/06/25 11:26:47;;;;;;;4.83;4.43;;;26.40;99.90;;;;;;4989061;28;20567;-52
2023/06/25 11:29:14;;;;;;;5.50;4.40;;;26.60;99.90;;;;;;4993120;28;20528;-52
2023/06/25 11:31:45;;;;;;;5.63;5.17;;;26.80;99.90;;;;;;4993678;28;20539;-52
2023/06/25 11:34:20;;;;;;;5.03;4.53;;;26.90;99.90;;;;;;4993062;28;20583;-52
2023/06/25 11:36:47;;;;;;;9.10;5.30;;;26.60;99.90;;;;;;4987987;28;20879;-52
2023/06/25 11:39:15;;;;;;;5.93;5.33;;;26.30;99.90;;;;;;4991290;28;20473;-52
2023/06/25 11:41:42;;;;;;;5.27;4.87;;;26.20;99.90;;;;;;4984356;28;20548;-52
2023/06/25 11:44:16;;;;;;;4.90;4.50;;;26.00;99.90;;;;;;4993015;28;20452;-53
2023/06/25 11:46:43;;;;;;;7.13;4.77;;;25.80;99.90;;;;;;4993025;28;20472;-52
2023/06/25 11:49:10;;;;;;;7.63;4.87;;;25.80;99.90;;;;;;4993253;28;20632;-52
2023/06/25 11:51:36;;;;;;;5.50;5.03;;;25.60;99.90;;;;;;4988607;28;20549;-51
2023/06/25 11:54:03;;;;;;;6.10;5.27;;;25.60;99.90;;;;;;4992843;28;20575;-51
2023/06/25 11:56:30;;;;;;;14.40;5.43;;;25.50;99.90;;;;;;4986107;28;20575;-51
2023/06/25 11:58:57;;;;;;;9.60;5.23;;;25.30;99.90;;;;;;4986940;28;20569;-52
2023/06/25 12:01:23;;;;;;;6.10;5.60;;;25.30;99.90;;;;;;4973640;28;20521;-52
2023/06/25 12:03:50;;;;;;;6.03;5.53;;;25.30;99.90;;;;;;4973462;28;20537;-53
2023/06/25 12:06:16;;;;;;;5.67;5.10;;;25.30;99.90;;;;;;4973622;28;20500;-52
2023/06/25 12:08:43;;;;;;;8.43;5.23;;;25.30;99.90;;;;;;4977568;28;20557;-53
2023/06/25 12:11:10;;;;;;;5.57;5.07;;;25.30;99.90;;;;;;4981763;28;20560;-53
2023/06/25 12:13:38;;;;;;;8.63;5.57;;;25.40;99.90;;;;;;4986287;28;20464;-52
2023/06/25 12:16:04;;;;;;;9.20;5.40;;;25.40;99.90;;;;;;4987771;28;20639;-53
2023/06/25 12:18:31;;;;;;;5.73;5.30;;;25.40;99.90;;;;;;4987856;28;20475;-52
2023/06/25 12:20:58;;;;;;;7.60;5.20;;;25.30;99.90;;;;;;4992310;28;20544;-52
2023/06/25 12:23:24;;;;;;;5.70;5.30;;;25.30;99.90;;;;;;4993357;28;20452;-52
2023/06/25 12:25:51;;;;;;;5.60;5.20;;;25.20;99.90;;;;;;4992729;28;20524;-56
2023/06/25 12:28:18;;;;;;;5.33;4.80;;;25.20;99.90;;;;;;4980212;28;20484;-52
2023/06/25 12:30:46;;;;;;;7.47;5.57;;;25.20;99.90;;;;;;4990877;28;20547;-51
2023/06/25 12:33:12;;;;;;;5.60;5.10;;;25.20;99.90;;;;;;4992209;28;20523;-53
2023/06/25 12:35:39;;;;;;;8.57;4.97;;;25.20;99.90;;;;;;4992025;28;20660;-52
2023/06/25 12:38:05;;;;;;;8.47;5.23;;;25.20;99.90;;;;;;4992266;28;20540;-52
2023/06/25 12:40:32;;;;;;;5.00;4.50;;;25.20;99.90;;;;;;4992976;28;21008;-52
2023/06/25 12:42:59;;;;;;;5.53;5.13;;;25.20;99.90;;;;;;4990573;28;20543;-53
2023/06/25 12:45:26;;;;;;;5.30;4.90;;;25.20;99.90;;;;;;4980653;28;20465;-53
2023/06/25 12:47:54;;;;;;;6.13;4.90;;;25.20;99.90;;;;;;4989460;28;20559;-51